sensor_id;sensor_type;location;lat;lon;timestamp;P1;durP1;ratioP1;P2;durP2;ratioP2
16820;SDS011;8527;49.740;6.604;2022-09-09T00:00:22;8.65;;;1.23;;
16820;SDS011;8527;49.740;6.604;2022-09-09T00:05:23;5.22;;;1.55;;
16820;SDS011;8527;49.740;6.604;2022-09-09T00:10:33;6.80;;;1.63;;
16820;SDS011;8527;49.740;6.604;2022-09-09T00:15:39;3.55;;;1.30;;
16820;SDS011;8527;49.740;6.604;2022-09-09T00:20:44;4.53;;;1.50;;
16820;SDS011;8527;49.740;6.604;2022-09-09T00:26:02;7.88;;;1.67;;
16820;SDS011;8527;49.740;6.604;2022-09-09T00:31:07;5.10;;;1.20;;
16820;SDS011;8527;49.740;6.604;2022-09-09T00:36:12;5.10;;;1.30;;
16820;SDS011;8527;49.740;6.604;2022-09-09T00:41:17;8.55;;;1.45;;
16820;SDS011;8527;49.740;6.604;2022-09-09T00:46:26;3.78;;;1.80;;
16820;SDS011;8527;49.740;6.604;2022-09-09T00:51:43;9.63;;;1.73;;
16820;SDS011;8527;49.740;6.604;2022-09-09T00:56:56;3.65;;;1.60;;
16820;SDS011;8527;49.740;6.604;2022-09-09T01:02:12;5.20;;;1.60;;
16820;SDS011;8527;49.740;6.604;2022-09-09T01:07:21;5.57;;;1.38;;
16820;SDS011;8527;49.740;6.604;2022-09-09T01:12:27;10.82;;;2.03;;
16820;SDS011;8527;49.740;6.604;2022-09-09T01:17:33;6.63;;;1.50;;
16820;SDS011;8527;49.740;6.604;2022-09-09T01:22:36;3.28;;;1.40;;
16820;SDS011;8527;49.740;6.604;2022-09-09T01:27:49;4.40;;;1.23;;
16820;SDS011;8527;49.740;6.604;2022-09-09T01:32:55;4.68;;;1.45;;
16820;SDS011;8527;49.740;6.604;2022-09-09T01:38:04;7.07;;;1.58;;
16820;SDS011;8527;49.740;6.604;2022-09-09T01:43:06;6.10;;;1.63;;
16820;SDS011;8527;49.740;6.604;2022-09-09T01:48:08;5.72;;;1.55;;
16820;SDS011;8527;49.740;6.604;2022-09-09T01:53:06;7.65;;;1.58;;
16820;SDS011;8527;49.740;6.604;2022-09-09T01:58:14;9.32;;;1.50;;
16820;SDS011;8527;49.740;6.604;2022-09-09T02:03:24;5.68;;;1.40;;
16820;SDS011;8527;49.740;6.604;2022-09-09T02:08:29;8.40;;;1.42;;
16820;SDS011;8527;49.740;6.604;2022-09-09T02:13:38;5.75;;;1.30;;
16820;SDS011;8527;49.740;6.604;2022-09-09T02:18:51;3.05;;;1.40;;
16820;SDS011;8527;49.740;6.604;2022-09-09T02:23:56;5.03;;;1.42;;
16820;SDS011;8527;49.740;6.604;2022-09-09T02:29:03;5.05;;;1.40;;
16820;SDS011;8527;49.740;6.604;2022-09-09T02:39:07;5.03;;;1.23;;
16820;SDS011;8527;49.740;6.604;2022-09-09T02:44:16;7.15;;;1.65;;
16820;SDS011;8527;49.740;6.604;2022-09-09T02:49:17;5.65;;;1.33;;
16820;SDS011;8527;49.740;6.604;2022-09-09T02:54:31;4.25;;;1.20;;
16820;SDS011;8527;49.740;6.604;2022-09-09T02:59:41;6.25;;;1.30;;
16820;SDS011;8527;49.740;6.604;2022-09-09T03:04:45;8.48;;;1.45;;
16820;SDS011;8527;49.740;6.604;2022-09-09T03:09:46;7.13;;;1.75;;
16820;SDS011;8527;49.740;6.604;2022-09-09T03:14:47;7.88;;;1.67;;
16820;SDS011;8527;49.740;6.604;2022-09-09T03:19:50;5.50;;;1.48;;
16820;SDS011;8527;49.740;6.604;2022-09-09T03:24:50;7.20;;;1.60;;
16820;SDS011;8527;49.740;6.604;2022-09-09T03:29:51;5.53;;;2.35;;
16820;SDS011;8527;49.740;6.604;2022-09-09T03:34:50;2.50;;;1.08;;
16820;SDS011;8527;49.740;6.604;2022-09-09T03:39:52;3.58;;;1.30;;
16820;SDS011;8527;49.740;6.604;2022-09-09T03:44:57;7.22;;;1.55;;
16820;SDS011;8527;49.740;6.604;2022-09-09T03:49:58;5.55;;;1.38;;
16820;SDS011;8527;49.740;6.604;2022-09-09T03:55:03;5.28;;;1.65;;
16820;SDS011;8527;49.740;6.604;2022-09-09T04:00:08;9.50;;;1.75;;
16820;SDS011;8527;49.740;6.604;2022-09-09T04:05:11;10.30;;;1.60;;
16820;SDS011;8527;49.740;6.604;2022-09-09T04:10:12;11.35;;;1.98;;
16820;SDS011;8527;49.740;6.604;2022-09-09T04:15:13;10.75;;;1.60;;
16820;SDS011;8527;49.740;6.604;2022-09-09T04:20:15;5.85;;;1.70;;
16820;SDS011;8527;49.740;6.604;2022-09-09T04:25:14;7.50;;;1.73;;
16820;SDS011;8527;49.740;6.604;2022-09-09T04:30:15;7.13;;;1.65;;
16820;SDS011;8527;49.740;6.604;2022-09-09T04:35:15;5.22;;;1.70;;
16820;SDS011;8527;49.740;6.604;2022-09-09T04:40:15;5.78;;;1.52;;
16820;SDS011;8527;49.740;6.604;2022-09-09T04:45:16;7.55;;;1.70;;
16820;SDS011;8527;49.740;6.604;2022-09-09T04:50:17;8.38;;;2.00;;
16820;SDS011;8527;49.740;6.604;2022-09-09T04:55:32;7.15;;;1.60;;
16820;SDS011;8527;49.740;6.604;2022-09-09T05:00:35;6.53;;;1.60;;
16820;SDS011;8527;49.740;6.604;2022-09-09T05:05:34;10.27;;;1.90;;
16820;SDS011;8527;49.740;6.604;2022-09-09T05:10:40;7.22;;;1.63;;
16820;SDS011;8527;49.740;6.604;2022-09-09T05:15:44;9.13;;;2.00;;
16820;SDS011;8527;49.740;6.604;2022-09-09T05:20:49;10.02;;;1.58;;
16820;SDS011;8527;49.740;6.604;2022-09-09T05:25:54;5.55;;;1.75;;
16820;SDS011;8527;49.740;6.604;2022-09-09T05:31:00;9.90;;;1.80;;
16820;SDS011;8527;49.740;6.604;2022-09-09T05:36:01;7.60;;;1.77;;
16820;SDS011;8527;49.740;6.604;2022-09-09T05:41:01;5.82;;;1.65;;
16820;SDS011;8527;49.740;6.604;2022-09-09T05:46:07;11.15;;;1.75;;
16820;SDS011;8527;49.740;6.604;2022-09-09T05:51:07;7.95;;;2.17;;
16820;SDS011;8527;49.740;6.604;2022-09-09T05:56:09;13.05;;;1.90;;
16820;SDS011;8527;49.740;6.604;2022-09-09T06:01:15;7.68;;;1.55;;
16820;SDS011;8527;49.740;6.604;2022-09-09T06:06:18;9.35;;;1.85;;
16820;SDS011;8527;49.740;6.604;2022-09-09T06:11:19;10.45;;;1.67;;
16820;SDS011;8527;49.740;6.604;2022-09-09T06:16:25;8.10;;;1.90;;
16820;SDS011;8527;49.740;6.604;2022-09-09T06:21:33;17.45;;;1.90;;
16820;SDS011;8527;49.740;6.604;2022-09-09T06:26:32;9.23;;;2.10;;
16820;SDS011;8527;49.740;6.604;2022-09-09T06:31:35;10.00;;;2.05;;
16820;SDS011;8527;49.740;6.604;2022-09-09T06:36:40;11.45;;;2.00;;
16820;SDS011;8527;49.740;6.604;2022-09-09T06:41:47;10.75;;;2.25;;
16820;SDS011;8527;49.740;6.604;2022-09-09T06:46:55;10.77;;;1.80;;
16820;SDS011;8527;49.740;6.604;2022-09-09T06:51:53;12.27;;;1.67;;
16820;SDS011;8527;49.740;6.604;2022-09-09T06:56:52;8.40;;;2.00;;
16820;SDS011;8527;49.740;6.604;2022-09-09T07:01:53;12.30;;;2.47;;
16820;SDS011;8527;49.740;6.604;2022-09-09T07:06:53;13.07;;;2.38;;
16820;SDS011;8527;49.740;6.604;2022-09-09T07:11:57;9.63;;;1.90;;
16820;SDS011;8527;49.740;6.604;2022-09-09T07:16:58;9.40;;;2.00;;
16820;SDS011;8527;49.740;6.604;2022-09-09T07:21:59;12.63;;;2.10;;
16820;SDS011;8527;49.740;6.604;2022-09-09T07:26:58;10.10;;;1.77;;
16820;SDS011;8527;49.740;6.604;2022-09-09T07:32:01;9.02;;;1.88;;
16820;SDS011;8527;49.740;6.604;2022-09-09T07:37:02;8.27;;;1.75;;
16820;SDS011;8527;49.740;6.604;2022-09-09T07:42:00;8.43;;;2.10;;
16820;SDS011;8527;49.740;6.604;2022-09-09T07:47:05;11.30;;;2.13;;
16820;SDS011;8527;49.740;6.604;2022-09-09T07:57:05;10.45;;;2.00;;
16820;SDS011;8527;49.740;6.604;2022-09-09T08:02:08;12.48;;;2.00;;
16820;SDS011;8527;49.740;6.604;2022-09-09T08:07:09;14.98;;;2.22;;
16820;SDS011;8527;49.740;6.604;2022-09-09T08:12:08;5.57;;;1.40;;
16820;SDS011;8527;49.740;6.604;2022-09-09T08:17:10;9.48;;;1.92;;
16820;SDS011;8527;49.740;6.604;2022-09-09T08:22:09;11.00;;;1.98;;
16820;SDS011;8527;49.740;6.604;2022-09-09T08:27:07;9.27;;;2.13;;
16820;SDS011;8527;49.740;6.604;2022-09-09T08:32:14;12.02;;;2.50;;
16820;SDS011;8527;49.740;6.604;2022-09-09T08:37:14;12.13;;;1.70;;
16820;SDS011;8527;49.740;6.604;2022-09-09T08:42:18;11.73;;;2.45;;
16820;SDS011;8527;49.740;6.604;2022-09-09T08:47:34;5.07;;;1.60;;
16820;SDS011;8527;49.740;6.604;2022-09-09T08:52:48;8.85;;;2.42;;
16820;SDS011;8527;49.740;6.604;2022-09-09T08:57:56;9.20;;;2.20;;
16820;SDS011;8527;49.740;6.604;2022-09-09T09:03:06;8.90;;;2.63;;
16820;SDS011;8527;49.740;6.604;2022-09-09T09:08:17;15.18;;;2.22;;
16820;SDS011;8527;49.740;6.604;2022-09-09T09:13:25;9.48;;;2.47;;
16820;SDS011;8527;49.740;6.604;2022-09-09T09:18:34;7.32;;;2.13;;
16820;SDS011;8527;49.740;6.604;2022-09-09T09:23:34;9.82;;;2.00;;
16820;SDS011;8527;49.740;6.604;2022-09-09T09:28:36;8.77;;;2.00;;
16820;SDS011;8527;49.740;6.604;2022-09-09T09:33:48;11.23;;;1.88;;
16820;SDS011;8527;49.740;6.604;2022-09-09T09:38:51;14.68;;;2.30;;
16820;SDS011;8527;49.740;6.604;2022-09-09T09:44:19;10.02;;;2.45;;
16820;SDS011;8527;49.740;6.604;2022-09-09T09:49:26;8.40;;;1.88;;
16820;SDS011;8527;49.740;6.604;2022-09-09T09:54:26;8.48;;;1.85;;
16820;SDS011;8527;49.740;6.604;2022-09-09T09:59:32;10.15;;;2.15;;
16820;SDS011;8527;49.740;6.604;2022-09-09T10:04:39;8.98;;;2.40;;
16820;SDS011;8527;49.740;6.604;2022-09-09T10:09:40;6.17;;;1.50;;
16820;SDS011;8527;49.740;6.604;2022-09-09T10:14:40;7.55;;;1.98;;
16820;SDS011;8527;49.740;6.604;2022-09-09T10:19:50;9.82;;;1.70;;
16820;SDS011;8527;49.740;6.604;2022-09-09T10:25:10;5.72;;;1.58;;
16820;SDS011;8527;49.740;6.604;2022-09-09T10:30:19;8.27;;;1.48;;
16820;SDS011;8527;49.740;6.604;2022-09-09T10:35:26;9.65;;;1.73;;
16820;SDS011;8527;49.740;6.604;2022-09-09T10:40:30;5.40;;;1.13;;
16820;SDS011;8527;49.740;6.604;2022-09-09T10:45:36;3.65;;;1.15;;
16820;SDS011;8527;49.740;6.604;2022-09-09T10:50:48;12.75;;;2.05;;
16820;SDS011;8527;49.740;6.604;2022-09-09T10:55:52;6.75;;;1.75;;
16820;SDS011;8527;49.740;6.604;2022-09-09T11:00:56;7.60;;;1.40;;
16820;SDS011;8527;49.740;6.604;2022-09-09T11:06:04;3.47;;;1.10;;
16820;SDS011;8527;49.740;6.604;2022-09-09T11:11:09;4.13;;;1.30;;
16820;SDS011;8527;49.740;6.604;2022-09-09T11:16:15;7.78;;;1.15;;
16820;SDS011;8527;49.740;6.604;2022-09-09T11:21:24;7.30;;;1.55;;
16820;SDS011;8527;49.740;6.604;2022-09-09T11:26:29;10.30;;;1.45;;
16820;SDS011;8527;49.740;6.604;2022-09-09T11:31:38;7.45;;;1.55;;
16820;SDS011;8527;49.740;6.604;2022-09-09T11:36:59;6.40;;;1.48;;
16820;SDS011;8527;49.740;6.604;2022-09-09T11:42:16;6.90;;;1.50;;
16820;SDS011;8527;49.740;6.604;2022-09-09T11:47:18;6.93;;;1.27;;
16820;SDS011;8527;49.740;6.604;2022-09-09T11:52:23;4.53;;;1.30;;
16820;SDS011;8527;49.740;6.604;2022-09-09T11:57:24;3.70;;;0.88;;
16820;SDS011;8527;49.740;6.604;2022-09-09T12:02:28;3.08;;;0.95;;
16820;SDS011;8527;49.740;6.604;2022-09-09T12:07:34;5.25;;;1.02;;
16820;SDS011;8527;49.740;6.604;2022-09-09T12:12:39;2.92;;;1.00;;
16820;SDS011;8527;49.740;6.604;2022-09-09T12:17:41;6.43;;;1.25;;
16820;SDS011;8527;49.740;6.604;2022-09-09T12:22:51;5.05;;;1.20;;
16820;SDS011;8527;49.740;6.604;2022-09-09T12:28:03;7.10;;;1.33;;
16820;SDS011;8527;49.740;6.604;2022-09-09T12:33:08;5.72;;;0.98;;
16820;SDS011;8527;49.740;6.604;2022-09-09T12:38:13;3.65;;;1.60;;
16820;SDS011;8527;49.740;6.604;2022-09-09T12:43:26;6.88;;;1.23;;
16820;SDS011;8527;49.740;6.604;2022-09-09T12:48:29;6.43;;;1.40;;
16820;SDS011;8527;49.740;6.604;2022-09-09T12:53:37;6.10;;;1.52;;
16820;SDS011;8527;49.740;6.604;2022-09-09T12:58:45;4.00;;;1.23;;
16820;SDS011;8527;49.740;6.604;2022-09-09T13:03:46;4.32;;;1.00;;
16820;SDS011;8527;49.740;6.604;2022-09-09T13:08:48;5.50;;;1.20;;
16820;SDS011;8527;49.740;6.604;2022-09-09T13:13:53;4.28;;;1.23;;
16820;SDS011;8527;49.740;6.604;2022-09-09T13:18:53;4.13;;;1.20;;
16820;SDS011;8527;49.740;6.604;2022-09-09T13:24:00;6.00;;;1.08;;
16820;SDS011;8527;49.740;6.604;2022-09-09T13:29:14;10.95;;;1.23;;
16820;SDS011;8527;49.740;6.604;2022-09-09T13:34:25;6.93;;;1.55;;
16820;SDS011;8527;49.740;6.604;2022-09-09T13:39:28;3.70;;;1.20;;
16820;SDS011;8527;49.740;6.604;2022-09-09T13:44:28;4.32;;;0.95;;
16820;SDS011;8527;49.740;6.604;2022-09-09T13:49:35;3.17;;;0.80;;
16820;SDS011;8527;49.740;6.604;2022-09-09T13:54:39;3.67;;;0.88;;
16820;SDS011;8527;49.740;6.604;2022-09-09T13:59:38;6.40;;;1.42;;
16820;SDS011;8527;49.740;6.604;2022-09-09T14:04:36;4.15;;;1.20;;
16820;SDS011;8527;49.740;6.604;2022-09-09T14:09:36;4.78;;;1.08;;
16820;SDS011;8527;49.740;6.604;2022-09-09T14:14:37;6.15;;;1.30;;
16820;SDS011;8527;49.740;6.604;2022-09-09T14:19:37;5.65;;;1.20;;
16820;SDS011;8527;49.740;6.604;2022-09-09T14:24:35;3.63;;;0.80;;
16820;SDS011;8527;49.740;6.604;2022-09-09T14:29:34;2.53;;;0.70;;
16820;SDS011;8527;49.740;6.604;2022-09-09T14:34:35;2.08;;;0.70;;
16820;SDS011;8527;49.740;6.604;2022-09-09T14:39:33;3.63;;;0.60;;
16820;SDS011;8527;49.740;6.604;2022-09-09T14:44:31;3.33;;;1.00;;
16820;SDS011;8527;49.740;6.604;2022-09-09T14:49:36;3.35;;;0.80;;
16820;SDS011;8527;49.740;6.604;2022-09-09T14:54:35;5.25;;;0.90;;
16820;SDS011;8527;49.740;6.604;2022-09-09T14:59:33;2.28;;;0.70;;
16820;SDS011;8527;49.740;6.604;2022-09-09T15:04:32;2.35;;;0.80;;
16820;SDS011;8527;49.740;6.604;2022-09-09T15:09:36;4.35;;;0.90;;
16820;SDS011;8527;49.740;6.604;2022-09-09T15:14:34;2.67;;;1.02;;
16820;SDS011;8527;49.740;6.604;2022-09-09T15:19:33;4.63;;;0.70;;
16820;SDS011;8527;49.740;6.604;2022-09-09T15:24:31;1.92;;;0.73;;
16820;SDS011;8527;49.740;6.604;2022-09-09T15:29:32;5.70;;;0.80;;
16820;SDS011;8527;49.740;6.604;2022-09-09T15:34:32;3.33;;;1.00;;
16820;SDS011;8527;49.740;6.604;2022-09-09T15:39:30;5.15;;;0.90;;
16820;SDS011;8527;49.740;6.604;2022-09-09T15:44:29;3.20;;;0.80;;
16820;SDS011;8527;49.740;6.604;2022-09-09T15:49:30;5.10;;;0.90;;
16820;SDS011;8527;49.740;6.604;2022-09-09T15:54:30;4.97;;;1.25;;
16820;SDS011;8527;49.740;6.604;2022-09-09T15:59:33;6.57;;;2.10;;
16820;SDS011;8527;49.740;6.604;2022-09-09T16:04:34;9.13;;;1.60;;
16820;SDS011;8527;49.740;6.604;2022-09-09T16:09:36;8.48;;;1.33;;
16820;SDS011;8527;49.740;6.604;2022-09-09T16:14:34;4.70;;;1.50;;
16820;SDS011;8527;49.740;6.604;2022-09-09T16:19:36;5.65;;;2.13;;
16820;SDS011;8527;49.740;6.604;2022-09-09T16:24:34;5.05;;;1.83;;
16820;SDS011;8527;49.740;6.604;2022-09-09T16:29:33;6.55;;;1.58;;
16820;SDS011;8527;49.740;6.604;2022-09-09T16:34:31;8.23;;;1.83;;
16820;SDS011;8527;49.740;6.604;2022-09-09T16:39:33;4.63;;;1.48;;
16820;SDS011;8527;49.740;6.604;2022-09-09T16:44:34;4.15;;;1.50;;
16820;SDS011;8527;49.740;6.604;2022-09-09T16:49:32;7.70;;;1.25;;
16820;SDS011;8527;49.740;6.604;2022-09-09T16:54:33;7.20;;;1.52;;
16820;SDS011;8527;49.740;6.604;2022-09-09T16:59:32;10.48;;;1.48;;
16820;SDS011;8527;49.740;6.604;2022-09-09T17:04:31;5.47;;;1.30;;
16820;SDS011;8527;49.740;6.604;2022-09-09T17:09:29;4.22;;;1.17;;
16820;SDS011;8527;49.740;6.604;2022-09-09T17:14:30;4.70;;;1.15;;
16820;SDS011;8527;49.740;6.604;2022-09-09T17:19:28;3.03;;;1.15;;
16820;SDS011;8527;49.740;6.604;2022-09-09T17:24:29;8.95;;;1.98;;
16820;SDS011;8527;49.740;6.604;2022-09-09T17:29:32;5.80;;;1.70;;
16820;SDS011;8527;49.740;6.604;2022-09-09T17:34:30;4.72;;;1.27;;
16820;SDS011;8527;49.740;6.604;2022-09-09T17:39:29;8.27;;;2.17;;
16820;SDS011;8527;49.740;6.604;2022-09-09T17:44:27;9.18;;;2.20;;
16820;SDS011;8527;49.740;6.604;2022-09-09T17:49:29;6.85;;;1.80;;
16820;SDS011;8527;49.740;6.604;2022-09-09T17:54:28;6.85;;;1.60;;
16820;SDS011;8527;49.740;6.604;2022-09-09T17:59:28;4.45;;;1.85;;
16820;SDS011;8527;49.740;6.604;2022-09-09T18:04:26;3.92;;;1.70;;
16820;SDS011;8527;49.740;6.604;2022-09-09T18:09:27;1.33;;;1.23;;
16820;SDS011;8527;49.740;6.604;2022-09-09T18:14:27;4.38;;;1.50;;
16820;SDS011;8527;49.740;6.604;2022-09-09T18:19:28;5.55;;;1.67;;
16820;SDS011;8527;49.740;6.604;2022-09-09T18:24:31;2.72;;;1.13;;
16820;SDS011;8527;49.740;6.604;2022-09-09T18:29:30;5.68;;;1.58;;
16820;SDS011;8527;49.740;6.604;2022-09-09T18:34:29;5.80;;;1.65;;
16820;SDS011;8527;49.740;6.604;2022-09-09T18:39:28;4.78;;;1.70;;
16820;SDS011;8527;49.740;6.604;2022-09-09T18:44:29;5.20;;;1.50;;
16820;SDS011;8527;49.740;6.604;2022-09-09T18:49:29;4.57;;;1.52;;
16820;SDS011;8527;49.740;6.604;2022-09-09T18:54:31;4.30;;;1.52;;
16820;SDS011;8527;49.740;6.604;2022-09-09T18:59:30;6.47;;;1.50;;
16820;SDS011;8527;49.740;6.604;2022-09-09T19:04:29;4.32;;;1.50;;
16820;SDS011;8527;49.740;6.604;2022-09-09T19:09:32;4.53;;;1.40;;
16820;SDS011;8527;49.740;6.604;2022-09-09T19:14:30;7.13;;;1.88;;
16820;SDS011;8527;49.740;6.604;2022-09-09T19:19:30;7.05;;;1.70;;
16820;SDS011;8527;49.740;6.604;2022-09-09T19:24:34;3.53;;;1.80;;
16820;SDS011;8527;49.740;6.604;2022-09-09T19:29:34;2.03;;;1.58;;
16820;SDS011;8527;49.740;6.604;2022-09-09T19:34:33;5.00;;;2.05;;
16820;SDS011;8527;49.740;6.604;2022-09-09T19:39:35;6.97;;;1.50;;
16820;SDS011;8527;49.740;6.604;2022-09-09T19:44:33;3.50;;;1.48;;
16820;SDS011;8527;49.740;6.604;2022-09-09T19:49:32;3.95;;;1.90;;
16820;SDS011;8527;49.740;6.604;2022-09-09T19:54:31;6.97;;;1.80;;
16820;SDS011;8527;49.740;6.604;2022-09-09T19:59:32;4.93;;;1.75;;
16820;SDS011;8527;49.740;6.604;2022-09-09T20:04:31;5.97;;;1.80;;
16820;SDS011;8527;49.740;6.604;2022-09-09T20:09:29;4.88;;;1.70;;
16820;SDS011;8527;49.740;6.604;2022-09-09T20:14:28;6.97;;;1.75;;
16820;SDS011;8527;49.740;6.604;2022-09-09T20:19:29;9.57;;;2.00;;
16820;SDS011;8527;49.740;6.604;2022-09-09T20:24:31;9.68;;;2.05;;
16820;SDS011;8527;49.740;6.604;2022-09-09T20:29:34;6.18;;;1.65;;
16820;SDS011;8527;49.740;6.604;2022-09-09T20:34:36;4.13;;;1.70;;
16820;SDS011;8527;49.740;6.604;2022-09-09T20:39:34;8.90;;;1.95;;
16820;SDS011;8527;49.740;6.604;2022-09-09T20:44:35;8.05;;;2.67;;
16820;SDS011;8527;49.740;6.604;2022-09-09T20:49:36;4.60;;;2.13;;
16820;SDS011;8527;49.740;6.604;2022-09-09T20:54:34;3.80;;;1.88;;
16820;SDS011;8527;49.740;6.604;2022-09-09T20:59:34;11.13;;;2.20;;
16820;SDS011;8527;49.740;6.604;2022-09-09T21:04:32;5.38;;;2.10;;
16820;SDS011;8527;49.740;6.604;2022-09-09T21:09:35;3.53;;;1.83;;
16820;SDS011;8527;49.740;6.604;2022-09-09T21:14:35;5.28;;;2.10;;
16820;SDS011;8527;49.740;6.604;2022-09-09T21:19:33;5.05;;;1.90;;
16820;SDS011;8527;49.740;6.604;2022-09-09T21:24:32;5.85;;;2.30;;
16820;SDS011;8527;49.740;6.604;2022-09-09T21:29:33;5.00;;;1.92;;
16820;SDS011;8527;49.740;6.604;2022-09-09T21:34:32;9.90;;;2.35;;
16820;SDS011;8527;49.740;6.604;2022-09-09T21:39:32;8.85;;;2.38;;
16820;SDS011;8527;49.740;6.604;2022-09-09T21:44:33;5.30;;;2.08;;
16820;SDS011;8527;49.740;6.604;2022-09-09T21:49:31;3.85;;;1.65;;
16820;SDS011;8527;49.740;6.604;2022-09-09T21:54:38;7.28;;;1.95;;
16820;SDS011;8527;49.740;6.604;2022-09-09T21:59:38;6.82;;;2.00;;
16820;SDS011;8527;49.740;6.604;2022-09-09T22:04:37;5.88;;;2.10;;
16820;SDS011;8527;49.740;6.604;2022-09-09T22:09:39;5.68;;;2.15;;
16820;SDS011;8527;49.740;6.604;2022-09-09T22:14:38;4.22;;;2.08;;
16820;SDS011;8527;49.740;6.604;2022-09-09T22:19:36;7.65;;;2.47;;
16820;SDS011;8527;49.740;6.604;2022-09-09T22:24:39;5.93;;;1.98;;
16820;SDS011;8527;49.740;6.604;2022-09-09T22:29:38;6.30;;;2.00;;
16820;SDS011;8527;49.740;6.604;2022-09-09T22:34:36;5.90;;;2.10;;
16820;SDS011;8527;49.740;6.604;2022-09-09T22:39:35;4.82;;;2.28;;
16820;SDS011;8527;49.740;6.604;2022-09-09T22:44:36;6.70;;;2.15;;
16820;SDS011;8527;49.740;6.604;2022-09-09T22:49:35;5.47;;;2.17;;
16820;SDS011;8527;49.740;6.604;2022-09-09T22:54:33;9.18;;;2.20;;
16820;SDS011;8527;49.740;6.604;2022-09-09T22:59:31;5.03;;;2.00;;
16820;SDS011;8527;49.740;6.604;2022-09-09T23:04:32;3.28;;;2.08;;
16820;SDS011;8527;49.740;6.604;2022-09-09T23:09:33;5.18;;;2.10;;
16820;SDS011;8527;49.740;6.604;2022-09-09T23:14:32;11.68;;;2.40;;
16820;SDS011;8527;49.740;6.604;2022-09-09T23:19:33;8.43;;;2.40;;
16820;SDS011;8527;49.740;6.604;2022-09-09T23:24:31;3.78;;;2.40;;
16820;SDS011;8527;49.740;6.604;2022-09-09T23:29:30;7.28;;;2.30;;
16820;SDS011;8527;49.740;6.604;2022-09-09T23:34:28;3.97;;;1.95;;
16820;SDS011;8527;49.740;6.604;2022-09-09T23:39:29;6.18;;;2.30;;
16820;SDS011;8527;49.740;6.604;2022-09-09T23:44:28;7.80;;;2.38;;
16820;SDS011;8527;49.740;6.604;2022-09-09T23:49:28;4.75;;;2.78;;
16820;SDS011;8527;49.740;6.604;2022-09-09T23:54:29;7.75;;;2.30;;
16820;SDS011;8527;49.740;6.604;2022-09-09T23:59:28;7.00;;;2.47;;
